createdAt,value
2022-09-16T00:03:00.101Z,1.98
2022-09-16T00:06:01.534Z,1.40
2022-09-16T00:09:03.006Z,1.70
2022-09-16T00:12:08.056Z,1.30
2022-09-16T00:15:10.004Z,1.70
2022-09-16T00:18:12.061Z,1.33
2022-09-16T00:21:13.346Z,1.35
2022-09-16T00:24:15.652Z,1.70
2022-09-16T00:27:16.926Z,2.20
2022-09-16T00:30:18.246Z,1.42
2022-09-16T00:33:19.989Z,1.33
2022-09-16T00:36:21.258Z,1.40
2022-09-16T00:39:22.749Z,1.50
2022-09-16T00:42:23.985Z,1.50
2022-09-16T00:45:27.734Z,1.48
2022-09-16T00:48:30.535Z,1.60
2022-09-16T00:51:32.187Z,1.70
2022-09-16T00:54:35.839Z,1.60
2022-09-16T00:57:38.033Z,1.50
2022-09-16T01:00:39.428Z,1.33
2022-09-16T01:03:50.278Z,1.50
2022-09-16T01:06:52.025Z,1.90
2022-09-16T01:09:53.668Z,2.05
2022-09-16T01:13:02.636Z,1.20
2022-09-16T01:16:11.844Z,2.28
2022-09-16T01:19:28.437Z,1.75
2022-09-16T01:22:45.915Z,1.60
2022-09-16T01:29:07.291Z,1.48
2022-09-16T01:32:11.303Z,1.42
2022-09-16T01:35:45.244Z,1.35
2022-09-16T01:38:52.457Z,1.50
2022-09-16T01:42:00.775Z,1.45
2022-09-16T01:45:20.466Z,1.50
2022-09-16T01:48:25.190Z,1.50
2022-09-16T01:51:32.673Z,1.45
2022-09-16T01:54:37.943Z,1.70
2022-09-16T01:57:45.286Z,2.33
2022-09-16T02:00:48.039Z,1.45
2022-09-16T02:03:51.804Z,1.70
2022-09-16T02:06:54.052Z,1.30
2022-09-16T02:09:58.172Z,1.58
2022-09-16T02:13:02.939Z,1.70
2022-09-16T02:16:08.167Z,2.40
2022-09-16T02:19:11.975Z,1.58
2022-09-16T02:22:15.643Z,1.52
2022-09-16T02:25:17.988Z,1.40
2022-09-16T02:28:22.955Z,1.60
2022-09-16T02:31:30.203Z,1.75
2022-09-16T02:34:34.022Z,1.60
2022-09-16T02:37:47.114Z,1.52
2022-09-16T02:40:51.011Z,1.80
2022-09-16T02:43:52.293Z,2.15
2022-09-16T02:47:12.546Z,1.30
2022-09-16T02:50:21.956Z,1.92
2022-09-16T02:53:41.402Z,1.23
2022-09-16T02:56:42.764Z,1.40
2022-09-16T02:59:44.395Z,1.70
2022-09-16T03:02:45.722Z,1.38
2022-09-16T03:06:10.026Z,1.50
2022-09-16T03:09:12.394Z,1.60
2022-09-16T03:12:13.592Z,1.38
2022-09-16T03:15:14.796Z,1.45
2022-09-16T03:18:36.284Z,1.40
2022-09-16T03:21:46.533Z,1.50
2022-09-16T03:24:58.399Z,1.30
2022-09-16T03:28:02.498Z,1.52
2022-09-16T03:31:08.824Z,1.30
2022-09-16T03:34:30.653Z,1.30
2022-09-16T03:37:34.327Z,1.13
2022-09-16T03:40:36.224Z,1.80
2022-09-16T03:43:37.474Z,1.27
2022-09-16T03:46:38.767Z,1.50
2022-09-16T03:49:40.064Z,1.33
2022-09-16T03:52:41.457Z,1.60
2022-09-16T03:55:42.743Z,1.45
2022-09-16T03:58:44.018Z,2.25
2022-09-16T04:01:45.499Z,1.42
2022-09-16T04:04:46.788Z,1.52
2022-09-16T04:07:49.232Z,1.65
2022-09-16T04:10:57.342Z,1.60
2022-09-16T04:13:58.987Z,2.13
2022-09-16T04:17:00.369Z,1.65
2022-09-16T04:20:01.694Z,1.58
2022-09-16T04:23:02.986Z,2.00
2022-09-16T04:26:04.608Z,2.05
2022-09-16T04:29:05.852Z,1.88
2022-09-16T04:32:07.300Z,2.00
2022-09-16T04:35:08.846Z,1.98
2022-09-16T04:38:12.848Z,1.50
2022-09-16T04:41:15.952Z,1.60
2022-09-16T04:44:17.298Z,1.77
2022-09-16T04:47:18.517Z,2.83
2022-09-16T04:50:19.766Z,2.50
2022-09-16T04:53:21.794Z,2.35
2022-09-16T04:56:24.433Z,2.40
2022-09-16T04:59:25.655Z,2.22
2022-09-16T05:02:28.586Z,2.85
2022-09-16T05:05:29.878Z,2.13
2022-09-16T05:08:31.215Z,2.13
2022-09-16T05:11:34.203Z,1.63
2022-09-16T05:14:35.427Z,2.38
2022-09-16T05:17:52.089Z,1.88
2022-09-16T05:20:56.986Z,1.70
2022-09-16T05:24:00.531Z,1.63
2022-09-16T05:27:01.783Z,2.53
2022-09-16T05:30:03.125Z,2.10
2022-09-16T05:33:04.372Z,1.92
2022-09-16T05:36:06.975Z,2.00
2022-09-16T05:39:24.888Z,1.80
2022-09-16T05:42:26.583Z,2.80
2022-09-16T05:45:32.249Z,2.78
2022-09-16T05:48:34.911Z,2.35
2022-09-16T05:51:37.075Z,1.80
2022-09-16T05:54:38.350Z,2.22
2022-09-16T05:57:39.647Z,2.03
2022-09-16T06:00:41.266Z,2.15
2022-09-16T06:03:43.485Z,2.20
2022-09-16T06:06:45.828Z,2.47
2022-09-16T06:09:47.158Z,2.50
2022-09-16T06:12:48.404Z,1.88
2022-09-16T06:15:51.196Z,2.10
2022-09-16T06:18:52.831Z,1.83
2022-09-16T06:21:54.118Z,2.28
2022-09-16T06:24:55.366Z,1.90
2022-09-16T06:27:56.583Z,1.92
2022-09-16T06:31:08.156Z,2.10
2022-09-16T06:34:13.850Z,1.95
2022-09-16T06:37:15.287Z,2.30
2022-09-16T06:40:17.286Z,1.23
2022-09-16T06:43:19.006Z,1.67
2022-09-16T06:46:24.575Z,2.10
2022-09-16T06:49:26.346Z,1.63
2022-09-16T06:52:28.109Z,2.00
2022-09-16T06:55:29.418Z,1.55
2022-09-16T06:58:34.237Z,1.63
2022-09-16T07:01:36.053Z,1.80
2022-09-16T07:04:37.725Z,2.00
2022-09-16T07:07:39.449Z,1.50
2022-09-16T07:10:40.658Z,1.83
2022-09-16T07:13:42.818Z,1.70
2022-09-16T07:16:44.098Z,1.48
2022-09-16T07:19:46.077Z,1.33
2022-09-16T07:22:50.659Z,1.77
2022-09-16T07:25:59.471Z,1.77
2022-09-16T07:29:02.011Z,1.70
2022-09-16T07:32:04.656Z,1.67
2022-09-16T07:35:06.099Z,1.73
2022-09-16T07:38:07.346Z,1.50
2022-09-16T07:41:16.041Z,1.70
2022-09-16T07:44:18.062Z,1.20
2022-09-16T07:47:22.192Z,1.08
2022-09-16T07:50:23.799Z,1.58
2022-09-16T07:53:29.494Z,0.88
2022-09-16T07:56:34.251Z,1.52
2022-09-16T07:59:35.493Z,1.10
2022-09-16T08:02:36.869Z,1.02
2022-09-16T08:05:38.158Z,1.40
2022-09-16T08:08:39.735Z,1.38
2022-09-16T08:11:41.009Z,1.33
2022-09-16T08:14:42.323Z,1.52
2022-09-16T08:17:43.575Z,1.60
2022-09-16T08:20:44.813Z,1.60
2022-09-16T08:23:46.176Z,1.35
2022-09-16T08:26:47.435Z,1.50
2022-09-16T08:29:48.899Z,1.50
2022-09-16T08:32:59.462Z,1.70
2022-09-16T08:39:02.078Z,1.17
2022-09-16T08:42:19.008Z,1.38
2022-09-16T08:45:37.495Z,1.85
2022-09-16T08:48:50.891Z,1.08
2022-09-16T08:51:53.554Z,1.38
2022-09-16T08:54:57.186Z,1.77
2022-09-16T08:58:02.161Z,1.20
2022-09-16T09:01:11.203Z,1.33
2022-09-16T09:04:12.893Z,1.17
2022-09-16T09:07:23.363Z,1.30
2022-09-16T09:10:31.541Z,1.00
2022-09-16T09:13:51.715Z,1.38
2022-09-16T09:17:11.680Z,1.38
2022-09-16T09:20:31.460Z,1.30
2022-09-16T09:23:51.142Z,1.63
2022-09-16T09:26:57.527Z,1.13
2022-09-16T09:29:58.833Z,1.35
2022-09-16T09:33:44.312Z,1.20
2022-09-16T09:36:41.430Z,1.30
2022-09-16T09:40:09.054Z,1.55
2022-09-16T09:43:25.606Z,0.80
2022-09-16T09:46:47.398Z,0.90
2022-09-16T09:49:55.025Z,1.17
2022-09-16T09:53:16.527Z,1.25
2022-09-16T09:56:39.838Z,1.33
2022-09-16T10:00:00.016Z,1.40
2022-09-16T10:03:04.099Z,1.35
2022-09-16T10:06:05.485Z,1.30
2022-09-16T10:09:09.579Z,1.17
2022-09-16T10:12:10.826Z,1.50
2022-09-16T10:15:21.220Z,1.52
2022-09-16T10:21:23.814Z,1.00
2022-09-16T10:24:30.092Z,0.90
2022-09-16T10:27:34.091Z,1.10
2022-09-16T10:30:43.509Z,1.00
2022-09-16T10:33:45.387Z,1.05
2022-09-16T10:36:46.844Z,1.23
2022-09-16T10:39:52.716Z,1.13
2022-09-16T10:42:56.903Z,1.15
2022-09-16T10:45:58.474Z,1.23
2022-09-16T10:49:01.533Z,1.20
2022-09-16T10:52:20.572Z,1.17
2022-09-16T10:55:29.525Z,1.23
2022-09-16T10:58:30.974Z,1.42
2022-09-16T11:01:54.810Z,1.27
2022-09-16T11:05:04.658Z,0.90
2022-09-16T11:08:11.161Z,0.68
2022-09-16T11:11:15.415Z,0.98
2022-09-16T11:14:26.692Z,1.15
2022-09-16T11:17:54.552Z,1.50
2022-09-16T11:21:01.877Z,1.10
2022-09-16T11:24:09.801Z,1.20
2022-09-16T11:27:20.202Z,1.10
2022-09-16T11:30:22.383Z,1.00
2022-09-16T11:33:36.888Z,1.10
2022-09-16T11:36:46.757Z,1.00
2022-09-16T11:39:57.182Z,0.80
2022-09-16T11:43:17.223Z,0.60
2022-09-16T11:46:27.420Z,2.15
2022-09-16T11:49:39.072Z,1.08
2022-09-16T11:53:04.316Z,0.60
2022-09-16T11:56:19.395Z,0.68
2022-09-16T11:59:20.604Z,0.55
2022-09-16T12:02:21.872Z,0.90
2022-09-16T12:05:41.668Z,1.05
2022-09-16T12:08:42.950Z,0.98
2022-09-16T12:11:46.296Z,0.85
2022-09-16T12:14:53.320Z,0.90
2022-09-16T12:18:01.133Z,0.80
2022-09-16T12:21:08.435Z,0.82
2022-09-16T12:24:13.503Z,1.00
2022-09-16T12:27:23.691Z,1.10
2022-09-16T12:33:31.082Z,0.98
2022-09-16T12:36:34.742Z,1.10
2022-09-16T12:39:36.048Z,1.42
2022-09-16T12:42:52.921Z,1.20
2022-09-16T12:48:55.328Z,1.00
2022-09-16T12:52:15.400Z,0.70
2022-09-16T12:55:35.677Z,0.90
2022-09-16T12:58:42.917Z,1.10
2022-09-16T13:01:50.220Z,0.90
2022-09-16T13:04:52.856Z,1.00
2022-09-16T13:07:55.581Z,1.10
2022-09-16T13:11:18.477Z,1.20
2022-09-16T13:14:25.238Z,0.85
2022-09-16T13:17:33.752Z,1.55
2022-09-16T13:20:39.232Z,1.23
2022-09-16T13:23:43.481Z,1.20
2022-09-16T13:26:45.059Z,1.73
2022-09-16T13:29:46.301Z,0.95
2022-09-16T13:32:50.266Z,1.25
2022-09-16T13:36:03.392Z,1.30
2022-09-16T13:39:05.966Z,1.23
2022-09-16T13:42:17.515Z,1.13
2022-09-16T13:45:38.633Z,1.20
2022-09-16T13:48:44.288Z,1.52
2022-09-16T13:51:46.652Z,0.93
2022-09-16T13:55:09.409Z,1.23
2022-09-16T13:58:28.131Z,1.25
2022-09-16T14:01:48.931Z,1.13
2022-09-16T14:04:55.833Z,1.15
2022-09-16T14:08:11.982Z,1.33
2022-09-16T14:11:19.356Z,1.35
2022-09-16T14:14:47.516Z,1.38
2022-09-16T14:17:50.988Z,1.20
2022-09-16T14:21:06.056Z,1.00
2022-09-16T14:24:20.363Z,1.08
2022-09-16T14:27:30.825Z,1.13
2022-09-16T14:33:33.738Z,1.20
2022-09-16T14:36:37.821Z,0.52
2022-09-16T14:42:48.836Z,0.70
2022-09-16T14:45:52.065Z,0.63
2022-09-16T14:48:53.374Z,0.90
2022-09-16T14:51:58.752Z,1.10
2022-09-16T14:55:00.346Z,1.02
2022-09-16T14:58:02.002Z,1.08
2022-09-16T15:01:09.051Z,1.13
2022-09-16T15:04:22.369Z,1.00
2022-09-16T15:07:27.620Z,1.13
2022-09-16T15:12:46.553Z,1.13
2022-09-16T15:13:51.520Z,0.52
2022-09-16T15:16:54.194Z,1.40
2022-09-16T15:19:57.771Z,1.00
2022-09-16T15:22:59.928Z,0.82
2022-09-16T15:26:09.377Z,0.90
2022-09-16T15:29:28.519Z,0.90
2022-09-16T15:32:31.675Z,0.98
2022-09-16T15:35:35.460Z,1.10
2022-09-16T15:38:38.958Z,0.90
2022-09-16T15:41:43.815Z,0.70
2022-09-16T15:44:50.052Z,0.57
2022-09-16T15:47:56.809Z,1.65
2022-09-16T15:51:01.594Z,0.57
2022-09-16T15:54:18.786Z,1.02
2022-09-16T15:57:28.018Z,1.60
2022-09-16T16:00:41.570Z,0.85
2022-09-16T16:03:49.820Z,0.68
2022-09-16T16:06:55.542Z,0.80
2022-09-16T16:10:10.086Z,0.80
2022-09-16T16:13:11.340Z,0.63
2022-09-16T16:16:13.747Z,0.57
2022-09-16T16:19:15.503Z,0.50
2022-09-16T16:22:17.495Z,0.70
2022-09-16T16:25:18.849Z,0.50
2022-09-16T16:28:20.154Z,0.60
2022-09-16T16:31:21.473Z,0.50
2022-09-16T16:34:22.791Z,0.43
2022-09-16T16:37:44.931Z,0.60
2022-09-16T16:40:49.998Z,0.40
2022-09-16T16:43:51.518Z,0.60
2022-09-16T16:46:53.672Z,0.43
2022-09-16T16:49:54.910Z,0.60
2022-09-16T16:52:56.610Z,0.40
2022-09-16T16:56:15.140Z,0.60
2022-09-16T16:59:17.238Z,0.50
2022-09-16T17:02:18.525Z,0.60
2022-09-16T17:05:20.121Z,0.60
2022-09-16T17:08:21.350Z,0.57
2022-09-16T17:11:26.146Z,0.60
2022-09-16T17:14:29.233Z,0.80
2022-09-16T17:17:31.731Z,0.52
2022-09-16T17:20:33.293Z,0.65
2022-09-16T17:23:34.642Z,0.88
2022-09-16T17:26:36.213Z,0.70
2022-09-16T17:29:37.444Z,0.95
2022-09-16T17:32:38.669Z,0.60
2022-09-16T17:35:40.060Z,1.40
2022-09-16T17:38:41.708Z,0.73
2022-09-16T17:41:43.676Z,0.73
2022-09-16T17:44:44.928Z,0.77
2022-09-16T17:47:46.351Z,0.70
2022-09-16T17:50:51.279Z,1.10
2022-09-16T17:53:52.537Z,1.40
2022-09-16T17:56:54.082Z,2.33
2022-09-16T17:59:55.501Z,1.02
2022-09-16T18:02:57.247Z,1.02
2022-09-16T18:06:09.226Z,0.82
2022-09-16T18:09:11.042Z,1.13
2022-09-16T18:12:12.325Z,1.02
2022-09-16T18:15:13.581Z,0.93
2022-09-16T18:18:17.021Z,0.93
2022-09-16T18:21:19.612Z,0.95
2022-09-16T18:24:20.893Z,0.90
2022-09-16T18:27:22.148Z,0.90
2022-09-16T18:30:24.974Z,0.70
2022-09-16T18:33:26.238Z,1.45
2022-09-16T18:36:29.882Z,0.85
2022-09-16T18:39:31.135Z,0.70
2022-09-16T18:42:32.398Z,0.95
2022-09-16T18:45:34.058Z,0.90
2022-09-16T18:48:35.342Z,1.00
2022-09-16T18:51:38.187Z,1.13
2022-09-16T18:54:39.433Z,1.13
2022-09-16T18:57:40.688Z,0.90
2022-09-16T19:00:41.956Z,0.90
2022-09-16T19:03:43.683Z,1.00
2022-09-16T19:06:47.692Z,1.40
2022-09-16T19:09:49.502Z,1.83
2022-09-16T19:12:50.735Z,2.33
2022-09-16T19:15:55.593Z,1.55
2022-09-16T19:18:56.865Z,1.38
2022-09-16T19:21:58.165Z,1.42
2022-09-16T19:25:01.492Z,1.35
2022-09-16T19:28:03.012Z,1.83
2022-09-16T19:31:08.621Z,1.60
2022-09-16T19:34:10.561Z,2.20
2022-09-16T19:37:11.794Z,1.80
2022-09-16T19:40:13.066Z,1.95
2022-09-16T19:43:14.394Z,2.05
2022-09-16T19:46:16.916Z,1.60
2022-09-16T19:49:20.046Z,1.88
2022-09-16T19:52:21.395Z,3.42
2022-09-16T19:55:22.659Z,2.53
2022-09-16T19:58:24.120Z,2.15
2022-09-16T20:01:26.543Z,2.95
2022-09-16T20:04:27.853Z,2.97
2022-09-16T20:07:30.497Z,1.17
2022-09-16T20:10:32.447Z,1.25
2022-09-16T20:13:34.049Z,1.38
2022-09-16T20:16:36.766Z,1.20
2022-09-16T20:19:38.012Z,0.90
2022-09-16T20:22:39.324Z,1.10
2022-09-16T20:25:40.612Z,1.17
2022-09-16T20:28:42.873Z,0.80
2022-09-16T20:31:45.083Z,1.10
2022-09-16T20:34:46.482Z,1.00
2022-09-16T20:37:47.731Z,1.05
2022-09-16T20:40:48.982Z,0.88
2022-09-16T20:43:50.785Z,0.93
2022-09-16T20:46:52.046Z,0.95
2022-09-16T20:49:53.285Z,1.10
2022-09-16T20:52:54.545Z,0.80
2022-09-16T20:56:00.045Z,0.75
2022-09-16T20:59:01.461Z,0.88
2022-09-16T21:02:04.335Z,1.08
2022-09-16T21:05:05.766Z,1.00
2022-09-16T21:08:07.020Z,1.10
2022-09-16T21:11:12.439Z,0.90
2022-09-16T21:14:15.865Z,0.90
2022-09-16T21:17:19.797Z,1.13
2022-09-16T21:20:21.260Z,1.42
2022-09-16T21:23:22.528Z,1.23
2022-09-16T21:26:26.214Z,0.90
2022-09-16T21:29:27.523Z,1.20
2022-09-16T21:32:28.782Z,0.98
2022-09-16T21:35:30.017Z,1.10
2022-09-16T21:38:31.465Z,0.93
2022-09-16T21:41:33.083Z,1.00
2022-09-16T21:44:34.377Z,1.13
2022-09-16T21:47:35.587Z,1.02
2022-09-16T21:50:37.713Z,1.38
2022-09-16T21:53:42.770Z,1.30
2022-09-16T21:56:44.107Z,1.60
2022-09-16T21:59:45.353Z,1.38
2022-09-16T22:02:46.682Z,1.10
2022-09-16T22:05:48.014Z,1.38
2022-09-16T22:08:50.080Z,1.20
2022-09-16T22:11:51.929Z,1.10
2022-09-16T22:14:53.202Z,1.17
2022-09-16T22:17:54.498Z,1.05
2022-09-16T22:20:58.602Z,1.30
2022-09-16T22:24:00.696Z,1.10
2022-09-16T22:27:02.001Z,0.93
2022-09-16T22:30:03.817Z,1.02
2022-09-16T22:33:05.052Z,1.13
2022-09-16T22:36:11.045Z,1.23
2022-09-16T22:39:16.125Z,1.08
2022-09-16T22:42:17.349Z,1.60
2022-09-16T22:45:18.568Z,1.00
2022-09-16T22:48:20.178Z,1.08
2022-09-16T22:51:21.619Z,1.05
2022-09-16T22:54:22.876Z,1.23
2022-09-16T22:57:24.294Z,1.02
2022-09-16T23:00:25.541Z,1.30
2022-09-16T23:03:26.895Z,1.33
2022-09-16T23:06:30.092Z,1.52
2022-09-16T23:09:31.526Z,1.27
2022-09-16T23:12:34.893Z,1.10
2022-09-16T23:15:37.108Z,0.90
2022-09-16T23:18:38.399Z,1.15
2022-09-16T23:21:40.077Z,1.08
2022-09-16T23:24:41.938Z,1.48
2022-09-16T23:27:43.151Z,0.98
2022-09-16T23:30:44.392Z,1.17
2022-09-16T23:33:46.102Z,1.30
2022-09-16T23:36:48.262Z,0.93
2022-09-16T23:39:50.004Z,1.00
2022-09-16T23:42:51.347Z,1.20
2022-09-16T23:45:52.769Z,1.40
2022-09-16T23:48:54.265Z,1.33
2022-09-16T23:51:55.481Z,1.58
2022-09-16T23:54:56.694Z,1.20
2022-09-16T23:57:58.143Z,1.08
